Time;durP1;ratioP1;P1;durP2;ratioP2;P2;SDS_P1;SDS_P2;PMS_P1;PMS_P2;Temp;Humidity;BMP_temperature;BMP_pressure;BME280_temperature;BME280_humidity;BME280_pressure;Samples;Min_cycle;Max_cycle;Signal;HPM_P1;HPM_P2
2020/12/08 00:02:04;;;;;;;7.10;5.25;;;17.50;50.80;;;;;;5077444;28;20157;-89
2020/12/08 00:04:31;;;;;;;6.55;5.30;;;17.50;50.80;;;;;;5077107;28;20154;-88
2020/12/08 00:07:06;;;;;;;9.18;5.40;;;17.50;50.80;;;;;;5060390;28;20161;-89
2020/12/08 00:09:34;;;;;;;7.13;5.53;;;17.60;50.80;;;;;;5060052;28;20238;-89
2020/12/08 00:12:08;;;;;;;7.18;5.63;;;17.50;51.00;;;;;;5060174;28;20512;-88
2020/12/08 00:14:34;;;;;;;7.57;5.63;;;17.50;51.10;;;;;;5060043;28;20208;-89
2020/12/08 00:17:04;;;;;;;9.48;5.78;;;17.50;50.90;;;;;;5027666;28;20165;-88
2020/12/08 00:19:31;;;;;;;6.75;5.18;;;17.50;51.00;;;;;;5060141;28;20154;-88
2020/12/08 00:21:58;;;;;;;7.95;5.57;;;17.50;51.10;;;;;;5060272;28;20538;-88
2020/12/08 00:24:25;;;;;;;7.07;5.20;;;17.50;50.90;;;;;;5044408;28;20181;-89
2020/12/08 00:26:54;;;;;;;7.57;5.28;;;17.50;51.10;;;;;;5044372;28;20169;-89
2020/12/08 00:29:31;;;;;;;7.85;5.22;;;17.50;51.20;;;;;;5041932;28;20190;-89
2020/12/08 00:31:58;;;;;;;7.03;5.20;;;17.50;51.50;;;;;;5059909;28;20234;-90
2020/12/08 00:34:26;;;;;;;9.35;5.38;;;17.50;51.20;;;;;;5043550;28;20177;-88
2020/12/08 00:36:56;;;;;;;8.25;5.82;;;17.50;51.20;;;;;;5060066;28;20635;-89
2020/12/08 00:39:27;;;;;;;8.20;5.30;;;17.50;51.40;;;;;;5043607;28;20251;-89
2020/12/08 00:41:55;;;;;;;8.65;5.53;;;17.50;51.50;;;;;;5042764;28;20184;-88
2020/12/08 00:44:29;;;;;;;8.05;5.50;;;17.40;51.50;;;;;;5059864;28;20165;-87
2020/12/08 00:47:03;;;;;;;8.55;5.82;;;17.50;51.40;;;;;;5042329;28;20191;-89
2020/12/08 00:49:30;;;;;;;7.72;5.78;;;17.40;51.40;;;;;;5042856;28;20196;-89
2020/12/08 00:51:58;;;;;;;9.27;5.22;;;17.40;51.40;;;;;;5041960;28;20195;-89
2020/12/08 00:54:26;;;;;;;8.50;5.43;;;17.40;51.50;;;;;;5043448;28;20172;-88
2020/12/08 00:56:55;;;;;;;8.13;5.78;;;17.40;51.60;;;;;;5042298;28;20201;-88
2020/12/08 00:59:25;;;;;;;9.05;5.70;;;17.40;51.70;;;;;;5042359;28;20295;-88
2020/12/08 01:01:52;;;;;;;8.95;5.93;;;17.40;51.50;;;;;;5042117;28;20210;-87
2020/12/08 01:04:23;;;;;;;7.43;5.70;;;17.50;51.70;;;;;;5042746;28;20168;-89
2020/12/08 01:06:52;;;;;;;9.38;5.55;;;17.40;51.60;;;;;;5059261;28;20169;-88
2020/12/08 01:09:19;;;;;;;7.22;5.45;;;17.50;51.70;;;;;;5042262;28;20697;-88
2020/12/08 01:11:47;;;;;;;6.70;5.25;;;17.40;51.60;;;;;;5059732;28;20181;-88
2020/12/08 01:14:13;;;;;;;8.73;5.78;;;17.40;51.90;;;;;;5041900;28;20323;-89
2020/12/08 01:16:42;;;;;;;6.88;5.45;;;17.40;51.70;;;;;;5025613;28;20624;-89
2020/12/08 01:19:18;;;;;;;8.88;5.88;;;17.40;51.70;;;;;;5058650;28;20223;-87
2020/12/08 01:21:45;;;;;;;8.18;5.63;;;17.40;51.70;;;;;;5058818;28;20196;-88
2020/12/08 01:24:22;;;;;;;7.07;5.32;;;17.40;51.80;;;;;;5042500;28;20199;-88
2020/12/08 01:26:48;;;;;;;9.40;5.65;;;17.40;51.70;;;;;;5041925;28;20576;-88
2020/12/08 01:29:14;;;;;;;8.60;5.85;;;17.40;51.70;;;;;;5025906;28;20209;-88
2020/12/08 01:31:40;;;;;;;7.70;5.85;;;17.40;51.70;;;;;;5024969;28;20252;-89
2020/12/08 01:34:07;;;;;;;8.65;5.85;;;17.40;51.70;;;;;;5042084;28;20173;-88
2020/12/08 01:36:43;;;;;;;7.57;5.47;;;17.40;52.00;;;;;;5042593;28;20199;-87
2020/12/08 01:39:16;;;;;;;10.15;5.82;;;17.40;51.80;;;;;;5059411;28;20204;-88
2020/12/08 01:41:47;;;;;;;9.38;5.90;;;17.40;51.70;;;;;;5043649;28;20192;-88
2020/12/08 01:44:25;;;;;;;7.38;5.38;;;17.40;51.80;;;;;;5046198;28;20628;-89
2020/12/08 01:46:52;;;;;;;8.25;5.63;;;17.40;51.80;;;;;;5046062;28;20177;-88
2020/12/08 01:49:19;;;;;;;8.55;5.95;;;17.40;51.70;;;;;;5046031;28;20192;-89
2020/12/08 01:51:54;;;;;;;8.18;5.10;;;17.40;51.90;;;;;;5045420;28;20184;-87
2020/12/08 01:54:29;;;;;;;6.68;5.20;;;17.40;51.80;;;;;;5046882;28;20160;-89
2020/12/08 01:56:57;;;;;;;7.95;5.38;;;17.40;52.00;;;;;;5062139;28;20192;-88
2020/12/08 01:59:31;;;;;;;7.70;5.30;;;17.40;52.10;;;;;;5046248;28;20169;-88
2020/12/08 02:02:06;;;;;;;7.45;5.47;;;17.30;52.10;;;;;;5045546;28;20179;-89
2020/12/08 02:04:41;;;;;;;8.85;5.53;;;17.30;52.10;;;;;;5045601;28;20175;-88
2020/12/08 02:07:08;;;;;;;8.80;5.63;;;17.30;52.20;;;;;;5045837;28;20179;-88
2020/12/08 02:09:43;;;;;;;7.53;5.93;;;17.30;52.30;;;;;;5044001;28;20205;-88
2020/12/08 02:12:19;;;;;;;6.70;5.32;;;17.30;52.10;;;;;;5046087;28;20244;-88
2020/12/08 02:14:46;;;;;;;7.97;5.60;;;17.30;52.30;;;;;;5045220;28;20234;-88
2020/12/08 02:17:15;;;;;;;8.52;5.72;;;17.30;52.30;;;;;;5045263;28;20154;-88
2020/12/08 02:19:45;;;;;;;7.13;5.60;;;17.30;52.40;;;;;;5045634;28;20684;-88
2020/12/08 02:22:19;;;;;;;7.10;5.43;;;17.30;52.40;;;;;;5062222;28;20580;-87
2020/12/08 02:24:49;;;;;;;8.25;5.68;;;17.30;52.00;;;;;;5045746;28;20635;-87
2020/12/08 02:27:20;;;;;;;7.97;5.60;;;17.30;52.10;;;;;;5045262;28;20177;-89
2020/12/08 02:29:46;;;;;;;7.25;5.55;;;17.40;52.30;;;;;;5061787;28;20195;-87
2020/12/08 02:32:13;;;;;;;7.20;5.38;;;17.30;52.10;;;;;;5044471;28;20185;-88
2020/12/08 02:34:42;;;;;;;7.10;5.00;;;17.40;52.30;;;;;;5045010;28;20193;-88
2020/12/08 02:37:10;;;;;;;8.63;5.53;;;17.40;52.10;;;;;;5045753;28;20162;-91
2020/12/08 02:39:36;;;;;;;7.03;5.47;;;17.40;52.80;;;;;;5045591;28;20176;-88
2020/12/08 02:42:06;;;;;;;9.00;5.63;;;17.40;52.30;;;;;;5045139;28;20566;-87
2020/12/08 02:44:41;;;;;;;7.05;5.25;;;17.30;52.30;;;;;;5044947;28;20189;-88
2020/12/08 02:47:09;;;;;;;8.07;5.43;;;17.30;52.50;;;;;;5044750;28;20165;-87
2020/12/08 02:49:37;;;;;;;7.10;5.53;;;17.30;52.30;;;;;;5044799;28;20193;-88
2020/12/08 02:52:12;;;;;;;8.50;5.88;;;17.30;52.90;;;;;;5045369;28;20192;-88
2020/12/08 02:54:38;;;;;;;8.68;5.57;;;17.30;52.40;;;;;;5045646;28;20161;-89
2020/12/08 02:57:13;;;;;;;6.68;5.05;;;17.30;52.20;;;;;;5044629;28;20161;-88
2020/12/08 02:59:43;;;;;;;7.60;5.45;;;17.30;52.30;;;;;;5044128;28;20168;-87
2020/12/08 03:02:15;;;;;;;8.48;5.50;;;17.30;52.20;;;;;;5044998;28;20236;-89
2020/12/08 03:04:42;;;;;;;8.23;6.10;;;17.30;52.20;;;;;;5046038;28;20165;-88
2020/12/08 03:07:09;;;;;;;6.85;5.18;;;17.30;52.30;;;;;;5078989;28;20161;-89
2020/12/08 03:09:44;;;;;;;6.20;5.10;;;17.30;52.30;;;;;;5044068;28;20666;-87
2020/12/08 03:12:14;;;;;;;7.53;5.78;;;17.30;52.50;;;;;;5060905;28;20173;-87
2020/12/08 03:14:43;;;;;;;7.68;5.88;;;17.30;52.60;;;;;;5052091;28;20217;-87
2020/12/08 03:17:12;;;;;;;7.82;5.25;;;17.30;52.30;;;;;;5061251;28;20172;-88
2020/12/08 03:19:39;;;;;;;7.63;5.50;;;17.30;52.40;;;;;;5061334;28;20181;-88
2020/12/08 03:22:06;;;;;;;6.55;5.25;;;17.30;52.30;;;;;;5078026;28;20606;-88
2020/12/08 03:24:41;;;;;;;10.40;6.00;;;17.30;52.40;;;;;;5060612;28;20204;-89
2020/12/08 03:27:08;;;;;;;7.97;5.70;;;17.30;52.30;;;;;;5061550;28;20603;-88
2020/12/08 03:29:34;;;;;;;7.78;5.00;;;17.30;53.10;;;;;;5061082;28;20606;-88
2020/12/08 03:32:01;;;;;;;8.40;5.57;;;17.30;52.50;;;;;;5061329;28;20635;-86
2020/12/08 03:34:29;;;;;;;7.10;5.40;;;17.30;52.50;;;;;;5079039;28;20587;-88
2020/12/08 03:37:04;;;;;;;7.25;5.30;;;17.30;52.40;;;;;;5060521;28;20785;-88
2020/12/08 03:39:39;;;;;;;7.10;5.00;;;17.30;52.50;;;;;;5061672;28;20222;-88
2020/12/08 03:42:12;;;;;;;7.13;5.45;;;17.30;52.30;;;;;;5061394;28;20168;-87
2020/12/08 03:44:47;;;;;;;7.47;5.43;;;17.30;52.40;;;;;;5078020;28;20161;-88
2020/12/08 03:47:15;;;;;;;7.65;5.90;;;17.30;52.50;;;;;;5061406;28;20676;-88
2020/12/08 03:49:48;;;;;;;8.57;5.55;;;17.30;52.50;;;;;;5077224;28;20213;-88
2020/12/08 03:52:18;;;;;;;7.88;5.50;;;17.30;52.70;;;;;;5077582;28;20150;-88
2020/12/08 03:54:53;;;;;;;7.60;5.43;;;17.30;52.50;;;;;;5060777;28;20165;-89
2020/12/08 03:57:20;;;;;;;7.45;5.53;;;17.30;52.40;;;;;;5078017;28;20153;-89
2020/12/08 03:59:53;;;;;;;6.85;5.15;;;17.20;52.40;;;;;;5060680;28;20184;-89
2020/12/08 04:02:20;;;;;;;8.18;6.13;;;17.30;52.70;;;;;;5061180;28;20169;-88
2020/12/08 04:04:50;;;;;;;8.13;5.95;;;17.30;52.50;;;;;;5060398;28;20256;-88
2020/12/08 04:07:17;;;;;;;7.18;5.45;;;17.30;52.60;;;;;;5060563;28;20173;-88
2020/12/08 04:09:43;;;;;;;6.13;5.07;;;17.20;52.60;;;;;;5060379;28;20197;-89
2020/12/08 04:12:12;;;;;;;6.97;5.50;;;17.30;52.50;;;;;;5060763;28;20175;-88
2020/12/08 04:14:38;;;;;;;7.93;5.82;;;17.20;52.40;;;;;;5061021;28;20221;-89
2020/12/08 04:17:05;;;;;;;6.80;5.38;;;17.30;52.40;;;;;;5044026;28;20659;-89
2020/12/08 04:19:32;;;;;;;8.23;5.93;;;17.30;52.40;;;;;;5060570;28;20694;-89
2020/12/08 04:22:08;;;;;;;8.23;5.55;;;17.30;52.20;;;;;;5077198;28;20166;-87
2020/12/08 04:24:34;;;;;;;9.57;5.65;;;17.30;52.40;;;;;;5077292;28;20169;-88
2020/12/08 04:27:01;;;;;;;8.13;5.45;;;17.30;52.40;;;;;;5060725;28;20256;-88
2020/12/08 04:29:28;;;;;;;9.25;5.65;;;17.30;52.30;;;;;;5059625;28;20212;-88
2020/12/08 04:31:57;;;;;;;7.20;5.70;;;17.30;52.30;;;;;;5060170;28;20176;-89
2020/12/08 04:34:24;;;;;;;8.23;5.60;;;17.30;52.50;;;;;;5061617;28;20587;-88
2020/12/08 04:36:51;;;;;;;6.68;5.32;;;17.30;52.50;;;;;;5061134;28;20508;-88
2020/12/08 04:39:18;;;;;;;7.90;5.90;;;17.30;52.60;;;;;;5059840;28;20169;-90
2020/12/08 04:41:55;;;;;;;7.43;5.32;;;17.30;52.50;;;;;;5078161;28;20609;-89
2020/12/08 04:44:26;;;;;;;8.82;5.82;;;17.30;52.50;;;;;;5076925;28;20149;-88
2020/12/08 04:47:02;;;;;;;6.63;5.05;;;17.30;52.50;;;;;;5059933;28;20256;-87
2020/12/08 04:49:36;;;;;;;7.03;5.28;;;17.30;52.40;;;;;;5060359;28;20189;-88
2020/12/08 04:52:03;;;;;;;7.80;5.68;;;17.30;52.20;;;;;;5059663;28;20161;-88
2020/12/08 04:54:30;;;;;;;7.38;5.68;;;17.30;52.10;;;;;;5075631;28;20215;-89
2020/12/08 04:56:57;;;;;;;7.70;5.50;;;17.40;51.60;;;;;;5076661;28;20163;-88
2020/12/08 04:59:24;;;;;;;8.05;5.40;;;17.50;51.10;;;;;;5077337;28;20160;-89
2020/12/08 05:01:53;;;;;;;7.85;5.50;;;17.60;50.80;;;;;;5061395;28;20275;-89
2020/12/08 05:04:42;;;;;;;7.93;5.53;;;17.60;50.90;;;;;;5062309;28;20169;-88
2020/12/08 05:07:09;;;;;;;7.82;5.93;;;17.60;50.80;;;;;;5058011;28;20169;-89
2020/12/08 05:09:46;;;;;;;7.28;5.70;;;17.60;50.90;;;;;;5060604;28;20249;-88
2020/12/08 05:12:20;;;;;;;6.78;5.20;;;17.60;50.50;;;;;;5060416;28;20187;-89
2020/12/08 05:14:46;;;;;;;8.07;5.43;;;17.60;50.60;;;;;;5061072;28;20239;-88
2020/12/08 05:17:25;;;;;;;7.43;5.35;;;17.70;50.70;;;;;;5046235;28;20600;-88
2020/12/08 05:20:22;;;;;;;7.95;5.55;;;17.70;50.60;;;;;;5078890;28;20238;-88
2020/12/08 05:23:09;;;;;;;7.00;5.25;;;17.60;50.80;;;;;;4969012;28;20184;-89
2020/12/08 05:25:56;;;;;;;8.73;5.80;;;17.60;50.80;;;;;;4969478;28;20526;-88
2020/12/08 05:28:44;;;;;;;7.38;5.60;;;17.50;50.80;;;;;;4983843;28;20176;-88
2020/12/08 05:31:23;;;;;;;7.55;5.50;;;17.60;50.80;;;;;;4984221;28;20180;-89
2020/12/08 05:34:13;;;;;;;6.88;5.45;;;17.50;51.00;;;;;;4984770;28;20183;-88
2020/12/08 05:37:02;;;;;;;8.55;5.70;;;17.50;50.90;;;;;;4984056;28;20179;-88
2020/12/08 05:39:36;;;;;;;6.95;5.20;;;17.50;51.10;;;;;;4983714;28;20192;-89
2020/12/08 05:42:25;;;;;;;7.03;5.15;;;17.50;50.80;;;;;;4968164;28;20171;-88
2020/12/08 05:45:14;;;;;;;6.65;5.07;;;17.60;50.40;;;;;;4984697;28;20618;-88
2020/12/08 05:48:04;;;;;;;7.65;5.82;;;17.60;50.40;;;;;;4968115;28;20670;-87
2020/12/08 05:50:32;;;;;;;6.72;5.55;;;17.60;50.10;;;;;;4967848;28;20663;-88
2020/12/08 05:53:04;;;;;;;7.95;5.22;;;17.60;50.50;;;;;;4984923;28;20176;-88
2020/12/08 05:55:43;;;;;;;8.68;5.85;;;17.60;50.50;;;;;;4967987;28;20164;-89
2020/12/08 05:58:12;;;;;;;7.35;5.40;;;17.60;50.40;;;;;;4975697;28;20270;-88
2020/12/08 06:00:40;;;;;;;7.72;5.53;;;17.60;50.20;;;;;;5064620;28;20165;-88
2020/12/08 06:03:17;;;;;;;7.63;5.78;;;17.60;50.20;;;;;;5080764;28;20177;-89
2020/12/08 06:05:48;;;;;;;7.45;5.47;;;17.60;50.30;;;;;;5063997;28;20254;-89
2020/12/08 06:08:19;;;;;;;7.40;5.70;;;17.70;50.10;;;;;;5064524;28;20234;-87
2020/12/08 06:10:50;;;;;;;7.32;5.72;;;17.70;50.10;;;;;;5080115;28;20216;-88
2020/12/08 06:13:29;;;;;;;7.80;5.78;;;17.60;50.40;;;;;;5080893;28;20174;-88
2020/12/08 06:16:22;;;;;;;6.65;5.30;;;17.60;50.30;;;;;;5047151;28;20554;-87
2020/12/08 06:19:09;;;;;;;8.00;5.57;;;17.60;50.10;;;;;;5077855;28;20165;-88
2020/12/08 06:21:57;;;;;;;7.65;5.43;;;17.60;50.30;;;;;;5077308;28;20176;-88
2020/12/08 06:24:26;;;;;;;8.48;5.90;;;17.60;50.00;;;;;;5063324;28;20240;-88
2020/12/08 06:27:17;;;;;;;6.47;5.20;;;17.60;50.10;;;;;;5080083;28;20184;-88
2020/12/08 06:30:05;;;;;;;7.28;5.75;;;17.60;49.90;;;;;;5061604;28;20291;-88
2020/12/08 06:32:31;;;;;;;7.93;5.18;;;17.60;50.00;;;;;;5061922;28;20158;-87
2020/12/08 06:35:13;;;;;;;7.22;5.50;;;17.60;50.10;;;;;;5078590;28;20164;-87
2020/12/08 06:38:14;;;;;;;8.38;5.60;;;17.60;49.80;;;;;;5061554;28;20167;-88
2020/12/08 06:41:01;;;;;;;7.70;5.40;;;17.70;49.90;;;;;;5062625;28;20164;-87
2020/12/08 06:43:44;;;;;;;7.07;5.30;;;17.60;49.90;;;;;;5075799;28;20251;-87
2020/12/08 06:46:10;;;;;;;6.15;5.07;;;17.60;49.60;;;;;;5061377;28;20642;-88
2020/12/08 06:48:39;;;;;;;7.05;5.32;;;17.60;49.60;;;;;;5060552;28;20209;-88
2020/12/08 06:51:22;;;;;;;7.85;5.50;;;17.70;49.70;;;;;;5058199;28;20567;-87
2020/12/08 06:53:49;;;;;;;8.85;5.63;;;17.70;49.40;;;;;;5057886;28;20165;-88
2020/12/08 06:56:25;;;;;;;8.77;5.88;;;17.60;49.60;;;;;;5057738;28;20161;-87
2020/12/08 06:59:01;;;;;;;7.25;5.88;;;17.70;49.70;;;;;;5074616;28;20153;-87
2020/12/08 07:01:36;;;;;;;6.35;5.07;;;17.70;49.30;;;;;;5074617;28;20606;-87
2020/12/08 07:04:03;;;;;;;7.93;5.80;;;17.70;49.40;;;;;;5057713;28;20161;-87
2020/12/08 07:06:41;;;;;;;7.50;5.82;;;17.70;49.30;;;;;;5058138;28;20178;-87
2020/12/08 07:09:07;;;;;;;6.97;5.32;;;17.70;49.20;;;;;;5057857;28;20197;-88
2020/12/08 07:11:35;;;;;;;8.45;6.00;;;17.70;49.60;;;;;;5074995;28;20159;-87
2020/12/08 07:14:02;;;;;;;6.47;5.20;;;17.60;49.70;;;;;;5057990;28;20554;-88
2020/12/08 07:16:29;;;;;;;7.45;5.45;;;17.70;49.60;;;;;;5041725;28;20273;-88
2020/12/08 07:18:56;;;;;;;7.40;5.45;;;17.70;49.40;;;;;;5042199;28;20174;-88
2020/12/08 07:21:23;;;;;;;7.38;5.35;;;17.60;49.60;;;;;;5074846;28;20158;-87
2020/12/08 07:23:54;;;;;;;7.10;5.10;;;17.60;49.20;;;;;;5058948;28;20180;-87
2020/12/08 07:26:35;;;;;;;7.55;5.75;;;17.70;49.40;;;;;;5060656;28;20196;-87
2020/12/08 07:29:02;;;;;;;8.18;5.47;;;17.70;49.10;;;;;;5059692;28;20686;-88
2020/12/08 07:31:31;;;;;;;7.05;5.32;;;17.70;49.40;;;;;;5076793;28;20155;-87
2020/12/08 07:33:59;;;;;;;6.72;5.30;;;17.70;49.60;;;;;;5077971;28;20154;-87
2020/12/08 07:36:29;;;;;;;8.13;5.85;;;17.70;49.80;;;;;;5064258;28;20192;-88
2020/12/08 07:38:56;;;;;;;7.70;5.70;;;17.60;50.10;;;;;;5058232;28;20627;-87
2020/12/08 07:41:24;;;;;;;8.38;6.18;;;17.60;50.20;;;;;;5041400;28;20288;-87
2020/12/08 07:43:58;;;;;;;7.22;5.55;;;17.60;50.10;;;;;;5073267;28;20165;-87
2020/12/08 07:46:29;;;;;;;6.75;5.55;;;17.60;49.90;;;;;;5056408;28;20172;-87
2020/12/08 07:49:09;;;;;;;7.60;5.80;;;17.60;49.90;;;;;;5057550;28;20246;-87
2020/12/08 07:51:38;;;;;;;7.03;5.38;;;17.60;49.80;;;;;;5074241;28;20155;-87
2020/12/08 07:54:05;;;;;;;7.00;5.70;;;17.60;49.60;;;;;;5074560;28;20197;-88
2020/12/08 07:56:32;;;;;;;8.57;6.07;;;17.60;49.40;;;;;;5058351;28;20219;-88
2020/12/08 07:59:00;;;;;;;6.63;5.20;;;17.70;49.30;;;;;;5059029;28;20177;-87
2020/12/08 08:01:48;;;;;;;7.28;5.35;;;17.70;49.40;;;;;;5063310;28;20543;-88
2020/12/08 08:04:18;;;;;;;6.95;5.38;;;17.70;49.20;;;;;;5058059;28;20181;-88
2020/12/08 08:06:49;;;;;;;8.10;5.90;;;17.70;49.20;;;;;;5062276;28;20170;-88
2020/12/08 08:09:17;;;;;;;6.93;5.18;;;17.70;48.70;;;;;;5074373;28;20192;-87
2020/12/08 08:11:44;;;;;;;6.53;5.50;;;17.80;49.00;;;;;;5074147;28;20161;-86
2020/12/08 08:14:12;;;;;;;7.00;5.35;;;17.70;48.70;;;;;;5058814;28;20725;-87
2020/12/08 08:16:40;;;;;;;7.00;5.50;;;17.70;48.90;;;;;;5041646;28;20177;-88
2020/12/08 08:19:10;;;;;;;8.10;5.82;;;17.70;48.60;;;;;;5061212;28;20596;-87
2020/12/08 08:21:37;;;;;;;7.55;5.95;;;17.80;48.70;;;;;;5074338;28;20173;-87
2020/12/08 08:24:05;;;;;;;7.28;5.40;;;17.80;48.70;;;;;;5058604;28;20227;-87
2020/12/08 08:26:32;;;;;;;7.75;5.40;;;17.80;48.80;;;;;;5060390;28;20624;-88
2020/12/08 08:29:08;;;;;;;6.47;5.10;;;17.70;48.70;;;;;;5061415;28;20212;-87
2020/12/08 08:31:33;;;;;;;6.90;5.30;;;17.70;48.70;;;;;;5078027;28;20148;-88
2020/12/08 08:34:01;;;;;;;7.05;5.28;;;17.70;49.10;;;;;;5045775;28;20259;-88
2020/12/08 08:36:29;;;;;;;8.68;5.75;;;17.60;49.30;;;;;;5074039;28;20218;-87
2020/12/08 08:38:55;;;;;;;7.55;5.43;;;17.50;49.50;;;;;;5058613;28;20227;-88
2020/12/08 08:41:24;;;;;;;7.43;5.30;;;17.60;49.10;;;;;;5060190;28;20165;-87
2020/12/08 08:43:51;;;;;;;6.80;5.35;;;17.70;48.70;;;;;;5074865;28;20169;-87
2020/12/08 08:46:18;;;;;;;6.60;5.53;;;17.70;48.70;;;;;;5076959;28;20226;-88
2020/12/08 08:48:45;;;;;;;8.13;5.68;;;17.80;48.30;;;;;;5060771;28;20518;-88
2020/12/08 08:51:14;;;;;;;6.78;5.25;;;17.70;48.90;;;;;;5059276;28;20193;-88
2020/12/08 08:53:41;;;;;;;8.52;5.75;;;17.70;49.00;;;;;;5058343;28;20209;-87
2020/12/08 08:56:08;;;;;;;6.47;4.97;;;17.60;49.20;;;;;;5074826;28;20237;-87
2020/12/08 08:58:35;;;;;;;6.93;5.30;;;17.70;48.10;;;;;;5074529;28;20146;-87
2020/12/08 09:01:05;;;;;;;7.32;5.60;;;17.80;48.20;;;;;;5074685;28;20192;-87
2020/12/08 09:03:32;;;;;;;6.50;5.10;;;17.80;47.90;;;;;;5058511;28;20168;-88
2020/12/08 09:05:59;;;;;;;7.35;5.60;;;17.80;48.30;;;;;;5077040;28;20158;-87
2020/12/08 09:08:26;;;;;;;6.93;5.15;;;17.70;48.40;;;;;;5059449;28;20244;-88
2020/12/08 09:10:53;;;;;;;7.40;5.63;;;17.70;48.70;;;;;;5076149;28;20181;-88
2020/12/08 09:13:21;;;;;;;5.97;4.97;;;17.70;48.30;;;;;;5059353;28;20184;-88
2020/12/08 09:15:51;;;;;;;7.32;5.50;;;17.80;48.10;;;;;;5059221;28;20177;-88
2020/12/08 09:21:40;;;;;;;6.93;5.15;;;17.70;48.30;;;;;;5066013;28;20184;-88
2020/12/08 09:24:17;;;;;;;6.30;5.07;;;17.70;48.30;;;;;;5047580;28;20177;-87
2020/12/08 09:26:45;;;;;;;6.93;5.25;;;17.80;48.00;;;;;;5043502;28;20172;-88
2020/12/08 09:29:17;;;;;;;7.50;5.40;;;17.70;48.70;;;;;;5060122;28;20603;-88
2020/12/08 09:31:55;;;;;;;7.32;5.35;;;17.70;48.40;;;;;;5044959;28;20166;-88
2020/12/08 09:34:25;;;;;;;7.68;5.47;;;17.70;48.60;;;;;;5062900;28;20153;-87
2020/12/08 09:36:53;;;;;;;7.32;5.63;;;17.70;48.70;;;;;;5048384;28;20188;-87
2020/12/08 09:39:18;;;;;;;7.45;5.47;;;17.80;48.30;;;;;;5044155;28;20219;-87
2020/12/08 09:41:48;;;;;;;6.82;4.95;;;17.80;48.50;;;;;;5045004;28;20580;-87
2020/12/08 09:44:15;;;;;;;6.85;5.43;;;17.80;47.90;;;;;;5043853;28;20620;-88
2020/12/08 09:46:49;;;;;;;6.35;5.20;;;17.80;48.30;;;;;;5041341;28;20166;-87
2020/12/08 09:49:20;;;;;;;8.90;5.05;;;17.70;48.30;;;;;;5040166;28;20264;-87
2020/12/08 09:51:47;;;;;;;8.65;5.55;;;17.70;48.60;;;;;;5060972;28;20172;-87
2020/12/08 09:54:14;;;;;;;7.57;5.07;;;17.80;48.50;;;;;;5046442;28;20664;-87
2020/12/08 09:56:44;;;;;;;11.77;5.53;;;17.70;48.00;;;;;;5026417;28;20178;-88
2020/12/08 09:59:11;;;;;;;11.18;5.72;;;17.80;49.00;;;;;;5025986;28;20259;-88
2020/12/08 10:01:37;;;;;;;11.25;5.57;;;17.80;48.30;;;;;;5038686;28;20617;-87
2020/12/08 10:04:03;;;;;;;11.00;5.00;;;17.80;48.30;;;;;;5028087;28;20162;-87
2020/12/08 10:06:38;;;;;;;8.57;5.32;;;17.80;47.90;;;;;;5031898;28;20158;-88
2020/12/08 10:09:06;;;;;;;8.85;5.10;;;17.80;48.20;;;;;;5033959;28;20192;-88
2020/12/08 10:11:32;;;;;;;13.73;5.70;;;17.80;48.30;;;;;;5033310;28;20154;-87
2020/12/08 10:14:00;;;;;;;11.68;5.85;;;17.80;48.70;;;;;;5035658;28;20305;-87
2020/12/08 10:16:27;;;;;;;12.20;5.50;;;17.80;48.50;;;;;;5031472;28;20190;-88
2020/12/08 10:18:54;;;;;;;6.72;5.30;;;17.80;48.30;;;;;;5064171;28;20151;-87
2020/12/08 10:21:24;;;;;;;9.00;5.57;;;17.80;48.40;;;;;;5027481;28;20260;-87
2020/12/08 10:23:52;;;;;;;8.93;5.40;;;17.70;48.30;;;;;;5058853;28;20186;-87
2020/12/08 10:26:21;;;;;;;8.98;5.30;;;17.70;48.50;;;;;;5062600;28;20181;-87
2020/12/08 10:28:54;;;;;;;9.25;5.25;;;17.80;48.00;;;;;;5027780;28;20165;-87
2020/12/08 10:31:28;;;;;;;10.73;5.47;;;17.80;48.10;;;;;;5046884;28;20223;-87
2020/12/08 10:33:57;;;;;;;10.07;5.32;;;17.90;47.80;;;;;;5047637;28;20169;-86
2020/12/08 10:36:31;;;;;;;10.48;5.07;;;17.80;48.00;;;;;;5046180;28;20166;-87
2020/12/08 10:39:06;;;;;;;11.88;5.90;;;17.80;48.10;;;;;;5045989;28;20166;-87
2020/12/08 10:41:34;;;;;;;10.65;5.63;;;17.80;48.30;;;;;;5063328;28;20174;-87
2020/12/08 10:44:01;;;;;;;6.95;5.22;;;17.80;48.00;;;;;;5062686;28;20165;-87
2020/12/08 10:46:34;;;;;;;10.27;5.28;;;17.80;47.80;;;;;;5061051;28;20170;-87
2020/12/08 10:49:01;;;;;;;12.00;5.63;;;17.80;48.00;;;;;;5060522;28;20189;-86
2020/12/08 10:51:28;;;;;;;8.63;5.40;;;17.80;48.00;;;;;;5060296;28;20186;-87
2020/12/08 10:53:54;;;;;;;13.32;5.78;;;17.80;48.00;;;;;;5030332;28;20583;-86
2020/12/08 10:56:23;;;;;;;9.25;5.25;;;17.70;48.30;;;;;;5047151;28;20165;-87
2020/12/08 10:58:57;;;;;;;8.18;5.80;;;17.80;48.00;;;;;;5030869;28;20245;-87
2020/12/08 11:01:24;;;;;;;9.02;5.32;;;17.80;48.00;;;;;;5048673;28;20584;-86
2020/12/08 11:03:51;;;;;;;7.00;5.43;;;17.80;47.70;;;;;;5049471;28;20166;-87
2020/12/08 11:06:26;;;;;;;10.60;5.38;;;17.80;48.20;;;;;;5049534;28;20182;-87
2020/12/08 11:08:53;;;;;;;7.13;5.28;;;17.80;47.90;;;;;;5050831;28;20253;-89
2020/12/08 11:11:27;;;;;;;6.82;5.25;;;17.80;47.60;;;;;;5049223;28;20261;-88
2020/12/08 11:13:53;;;;;;;8.20;5.18;;;17.90;47.50;;;;;;5046929;28;20218;-86
2020/12/08 11:16:20;;;;;;;7.80;5.40;;;17.90;47.60;;;;;;5039813;28;20154;-87
2020/12/08 11:18:47;;;;;;;8.30;5.28;;;17.80;47.70;;;;;;5038890;28;20184;-87
2020/12/08 11:21:23;;;;;;;8.15;5.45;;;17.80;47.80;;;;;;5054987;28;20162;-87
2020/12/08 11:23:50;;;;;;;8.68;5.70;;;17.80;47.80;;;;;;5038969;28;20176;-86
2020/12/08 11:26:16;;;;;;;6.97;4.80;;;17.80;47.60;;;;;;5055253;28;20154;-87
2020/12/08 11:28:44;;;;;;;8.20;5.25;;;17.80;47.70;;;;;;5038186;28;20173;-87
2020/12/08 11:31:19;;;;;;;7.30;5.45;;;17.80;48.40;;;;;;5038255;28;20304;-87
2020/12/08 11:33:46;;;;;;;8.05;5.22;;;17.80;47.60;;;;;;5037779;28;20169;-87
2020/12/08 11:36:14;;;;;;;9.38;5.25;;;17.80;47.40;;;;;;5037712;28;20261;-87
2020/12/08 11:38:41;;;;;;;7.80;5.40;;;17.80;47.30;;;;;;5055157;28;20178;-87
2020/12/08 11:41:15;;;;;;;8.10;5.25;;;17.80;47.30;;;;;;5038984;28;20169;-87
2020/12/08 11:43:42;;;;;;;7.18;4.90;;;17.90;47.20;;;;;;5054779;28;20240;-87
2020/12/08 11:46:13;;;;;;;7.20;5.00;;;17.90;47.10;;;;;;5054860;28;20172;-87
2020/12/08 11:48:40;;;;;;;7.60;5.25;;;17.90;47.30;;;;;;5056433;28;20173;-87
2020/12/08 11:51:07;;;;;;;5.10;4.43;;;17.80;47.60;;;;;;5038574;28;20185;-87
2020/12/08 11:53:34;;;;;;;8.35;5.28;;;17.80;47.30;;;;;;5055801;28;20234;-87
2020/12/08 11:56:09;;;;;;;7.40;5.45;;;17.80;47.50;;;;;;5055853;28;20227;-86
2020/12/08 11:58:35;;;;;;;6.57;4.78;;;17.80;47.60;;;;;;5039524;28;20165;-87
2020/12/08 12:01:03;;;;;;;8.68;5.30;;;17.80;47.20;;;;;;5055296;28;20594;-87
2020/12/08 12:03:38;;;;;;;6.72;4.63;;;17.80;47.50;;;;;;5037918;28;20228;-86
2020/12/08 12:06:03;;;;;;;6.00;5.03;;;17.70;47.40;;;;;;5054426;28;20164;-86
2020/12/08 12:08:30;;;;;;;8.10;4.85;;;17.70;47.20;;;;;;5039208;28;20657;-86
2020/12/08 12:10:57;;;;;;;6.35;4.93;;;17.70;47.20;;;;;;5055614;28;20198;-86
2020/12/08 12:13:25;;;;;;;6.05;4.95;;;17.80;47.20;;;;;;5057947;28;20174;-87
2020/12/08 12:15:51;;;;;;;6.10;4.95;;;17.80;47.20;;;;;;5023460;28;20170;-87
2020/12/08 12:18:19;;;;;;;8.18;5.25;;;17.90;46.80;;;;;;5025036;28;20620;-87
2020/12/08 12:20:48;;;;;;;6.93;4.80;;;17.90;46.90;;;;;;5022197;28;20581;-87
2020/12/08 12:23:14;;;;;;;6.00;5.10;;;17.80;47.00;;;;;;5055983;28;20233;-87
2020/12/08 12:25:41;;;;;;;7.40;5.15;;;17.80;47.00;;;;;;5038626;28;20264;-87
2020/12/08 12:28:08;;;;;;;6.53;5.18;;;17.70;47.30;;;;;;5039371;28;20174;-86
2020/12/08 12:30:42;;;;;;;7.07;4.90;;;17.70;47.20;;;;;;5037361;28;20204;-87
2020/12/08 12:33:09;;;;;;;6.30;5.22;;;17.70;47.10;;;;;;5021431;28;20188;-87
2020/12/08 12:35:35;;;;;;;6.40;5.00;;;17.70;47.50;;;;;;5038392;28;20154;-87
2020/12/08 12:38:02;;;;;;;6.68;4.97;;;17.70;47.40;;;;;;5038764;28;20151;-87
2020/12/08 12:40:36;;;;;;;6.70;5.05;;;17.70;47.50;;;;;;5039715;28;20162;-87
2020/12/08 12:43:03;;;;;;;7.10;5.22;;;17.60;47.60;;;;;;5019945;28;20211;-86
2020/12/08 12:45:30;;;;;;;6.75;5.05;;;17.60;47.60;;;;;;5020971;28;20158;-87
2020/12/08 12:48:04;;;;;;;8.23;5.10;;;17.70;47.20;;;;;;5020934;28;20257;-87
2020/12/08 12:50:30;;;;;;;6.35;5.22;;;17.80;47.00;;;;;;5037037;28;20194;-86
2020/12/08 12:52:56;;;;;;;6.53;4.78;;;17.70;47.20;;;;;;5038109;28;20640;-87
2020/12/08 12:55:23;;;;;;;6.78;5.10;;;17.70;47.00;;;;;;5020232;28;20245;-88
2020/12/08 12:57:49;;;;;;;5.95;5.20;;;17.80;46.80;;;;;;5054801;28;20146;-87
2020/12/08 13:00:20;;;;;;;7.97;5.05;;;17.70;46.80;;;;;;5038069;28;20158;-86
2020/12/08 13:02:47;;;;;;;8.95;5.28;;;17.70;46.60;;;;;;5037482;28;20158;-87
2020/12/08 13:05:13;;;;;;;7.35;4.93;;;17.80;46.60;;;;;;5021660;28;20212;-88
2020/12/08 13:07:39;;;;;;;6.38;5.00;;;17.80;46.60;;;;;;5020690;28;20166;-87